Time;durP1;ratioP1;P1;durP2;ratioP2;P2;SDS_P1;SDS_P2;PMS_P1;PMS_P2;Temp;Humidity;BMP_temperature;BMP_pressure;BME280_temperature;BME280_humidity;BME280_pressure;Samples;Min_cycle;Max_cycle;Signal;HPM_P1;HPM_P2
2023/08/26 00:02:19;;;;;;;50.97;34.38;;;;;;;19.01;100.00;100833.88;5020306;28;20044;-73
2023/08/26 00:04:48;;;;;;;60.42;35.80;;;;;;;18.90;100.00;100834.97;5029764;28;20036;-73
2023/08/26 00:07:13;;;;;;;49.22;32.90;;;;;;;18.94;100.00;100839.06;5029724;28;20888;-72
2023/08/26 00:09:39;;;;;;;55.80;32.95;;;;;;;18.94;100.00;100833.66;5026843;28;20025;-73
2023/08/26 00:12:05;;;;;;;59.28;35.53;;;;;;;18.86;100.00;100833.56;5022818;28;20053;-73
2023/08/26 00:14:31;;;;;;;58.55;34.88;;;;;;;18.88;100.00;100843.22;5025067;28;20942;-73
2023/08/26 00:16:57;;;;;;;58.55;35.90;;;;;;;18.96;100.00;100838.91;5019841;28;20045;-72
2023/08/26 00:19:24;;;;;;;44.63;31.05;;;;;;;19.03;100.00;100840.00;5028123;28;20037;-73
2023/08/26 00:21:50;;;;;;;62.63;35.75;;;;;;;19.11;100.00;100835.53;5029236;28;20030;-73
2023/08/26 00:24:19;;;;;;;50.80;32.33;;;;;;;19.14;100.00;100826.28;5026553;28;20069;-73
2023/08/26 00:26:45;;;;;;;68.78;38.53;;;;;;;19.13;100.00;100827.28;5029341;28;20166;-72
2023/08/26 00:29:11;;;;;;;64.88;36.95;;;;;;;19.05;100.00;100824.47;5024813;28;20037;-72
2023/08/26 00:31:37;;;;;;;55.88;37.17;;;;;;;19.13;100.00;100828.13;5026586;28;20056;-73
2023/08/26 00:34:03;;;;;;;60.50;36.97;;;;;;;19.18;100.00;100815.97;5025926;28;20029;-73
2023/08/26 00:36:33;;;;;;;66.30;35.97;;;;;;;19.18;100.00;100824.09;5024620;28;20041;-73
2023/08/26 00:38:58;;;;;;;60.33;36.67;;;;;;;19.13;100.00;100825.44;5030141;28;20053;-73
2023/08/26 00:41:24;;;;;;;59.92;36.33;;;;;;;19.09;100.00;100828.59;5029832;28;21873;-73
2023/08/26 00:43:49;;;;;;;60.95;35.47;;;;;;;19.04;100.00;100823.63;5038288;28;20075;-73
2023/08/26 00:46:15;;;;;;;68.40;37.17;;;;;;;19.11;100.00;100824.72;5021006;28;20115;-73
2023/08/26 00:48:42;;;;;;;56.65;36.20;;;;;;;19.03;100.00;100823.78;5059102;28;20114;-73
2023/08/26 00:51:07;;;;;;;61.15;32.10;;;;;;;19.02;100.00;100816.66;5028904;28;20132;-73
2023/08/26 00:53:34;;;;;;;49.53;31.30;;;;;;;18.99;100.00;100815.13;5060687;28;20935;-73
2023/08/26 00:56:01;;;;;;;52.33;31.90;;;;;;;18.82;100.00;100824.88;5029178;28;20134;-74
2023/08/26 00:58:27;;;;;;;53.95;31.70;;;;;;;18.76;100.00;100825.50;5027914;28;20157;-73
2023/08/26 01:00:53;;;;;;;47.13;31.85;;;;;;;18.63;100.00;100833.09;5028354;28;20062;-73
2023/08/26 01:03:20;;;;;;;48.05;29.17;;;;;;;18.65;100.00;100833.78;5043278;28;20087;-73
2023/08/26 01:05:46;;;;;;;45.50;27.98;;;;;;;18.58;100.00;100836.25;5009066;28;20057;-73
2023/08/26 01:08:12;;;;;;;42.75;28.13;;;;;;;18.60;100.00;100830.69;5042924;28;20041;-72
2023/08/26 01:11:06;;;;;;;49.03;27.05;;;;;;;18.59;100.00;100828.97;5029158;28;20049;-72
2023/08/26 01:13:41;;;;;;;42.05;26.27;;;;;;;18.35;100.00;100827.66;5050823;28;20075;-72
2023/08/26 01:16:08;;;;;;;35.72;24.55;;;;;;;18.44;100.00;100822.38;5024503;28;20072;-73
2023/08/26 01:18:34;;;;;;;37.38;22.88;;;;;;;18.46;100.00;100818.50;5028587;28;20026;-73
2023/08/26 01:21:00;;;;;;;39.58;24.90;;;;;;;18.40;100.00;100820.97;5027474;28;20600;-72
2023/08/26 01:23:41;;;;;;;40.17;24.10;;;;;;;18.38;100.00;100819.25;5023311;28;20037;-73
2023/08/26 01:26:07;;;;;;;54.92;25.70;;;;;;;18.37;100.00;100820.28;5061988;28;20042;-73
2023/08/26 01:28:33;;;;;;;43.13;25.35;;;;;;;18.36;100.00;100817.69;5029230;28;20041;-73
2023/08/26 01:31:02;;;;;;;44.53;26.35;;;;;;;18.34;100.00;100814.31;5059898;28;20045;-73
2023/08/26 01:33:34;;;;;;;40.88;25.30;;;;;;;18.33;100.00;100818.88;5028971;28;20083;-72
2023/08/26 01:36:03;;;;;;;49.90;26.27;;;;;;;18.38;100.00;100821.13;5041120;28;20104;-73
2023/08/26 01:38:29;;;;;;;44.85;26.77;;;;;;;18.33;100.00;100820.72;5015019;28;21087;-72
2023/08/26 01:40:56;;;;;;;43.75;28.38;;;;;;;18.38;100.00;100819.25;5020505;28;20079;-72
2023/08/26 01:43:24;;;;;;;47.38;28.42;;;;;;;18.34;100.00;100815.16;5028704;28;20073;-73
2023/08/26 01:45:52;;;;;;;45.25;26.80;;;;;;;18.40;100.00;100818.25;5039270;28;20037;-73
2023/08/26 01:48:18;;;;;;;49.20;28.75;;;;;;;18.53;100.00;100814.22;5028013;28;20040;-73
2023/08/26 01:50:44;;;;;;;53.80;28.55;;;;;;;18.34;100.00;100819.72;5017259;28;20053;-73
2023/08/26 01:53:11;;;;;;;49.30;26.65;;;;;;;18.34;100.00;100827.81;5030869;28;20041;-73
2023/08/26 01:55:37;;;;;;;47.00;29.27;;;;;;;18.40;100.00;100834.47;5024854;28;20041;-73
2023/08/26 01:58:02;;;;;;;37.65;24.90;;;;;;;18.38;100.00;100830.06;5029609;28;20086;-73
2023/08/26 02:00:28;;;;;;;48.28;28.95;;;;;;;18.31;100.00;100834.34;5027945;28;20042;-73
2023/08/26 02:02:54;;;;;;;44.08;29.50;;;;;;;18.28;100.00;100829.25;5026514;28;20764;-73
2023/08/26 02:05:19;;;;;;;45.47;27.58;;;;;;;18.30;100.00;100837.19;5063031;28;20819;-73
2023/08/26 02:07:45;;;;;;;53.45;27.90;;;;;;;18.09;100.00;100829.31;5047553;28;20958;-72
2023/08/26 02:10:10;;;;;;;39.08;25.20;;;;;;;17.84;100.00;100828.09;5031325;28;20034;-72
2023/08/26 02:12:36;;;;;;;44.30;26.83;;;;;;;17.97;100.00;100836.72;5042302;28;20499;-73
2023/08/26 02:15:02;;;;;;;42.47;25.15;;;;;;;17.79;100.00;100833.06;5034202;28;20784;-72
2023/08/26 02:17:29;;;;;;;45.40;26.58;;;;;;;17.80;100.00;100832.91;5028122;28;20033;-73
2023/08/26 02:19:54;;;;;;;42.55;24.58;;;;;;;17.80;100.00;100832.06;5030225;28;20150;-73
2023/08/26 02:22:20;;;;;;;32.28;22.90;;;;;;;17.70;100.00;100825.78;5026201;28;20096;-72
2023/08/26 02:24:46;;;;;;;30.00;21.13;;;;;;;17.67;100.00;100834.16;5030414;28;20049;-72
2023/08/26 02:27:13;;;;;;;32.53;20.88;;;;;;;17.69;100.00;100832.19;5030001;28;20030;-73
2023/08/26 02:29:39;;;;;;;33.00;16.98;;;;;;;17.54;100.00;100827.22;5024285;28;20120;-72
2023/08/26 02:32:05;;;;;;;30.83;17.20;;;;;;;17.43;100.00;100831.91;5025607;28;20724;-73
2023/08/26 02:34:31;;;;;;;29.63;14.75;;;;;;;17.32;100.00;100833.75;5027039;28;20072;-73
2023/08/26 02:36:57;;;;;;;31.80;14.77;;;;;;;17.17;100.00;100842.38;5031130;28;20029;-73
2023/08/26 02:39:22;;;;;;;23.52;15.70;;;;;;;17.15;100.00;100829.06;5062006;28;20033;-73
2023/08/26 02:41:48;;;;;;;25.38;14.77;;;;;;;17.04;100.00;100835.41;5030657;28;20038;-73
2023/08/26 02:44:13;;;;;;;28.75;16.15;;;;;;;17.18;100.00;100826.09;5026735;28;20037;-73
2023/08/26 02:46:39;;;;;;;31.10;16.02;;;;;;;17.15;100.00;100834.44;5028086;28;20038;-73
2023/08/26 02:49:04;;;;;;;22.13;15.73;;;;;;;17.33;100.00;100826.53;5023949;28;20053;-73
2023/08/26 02:51:31;;;;;;;29.77;14.50;;;;;;;17.05;100.00;100828.19;5027326;28;20041;-73
2023/08/26 02:53:56;;;;;;;32.45;15.55;;;;;;;17.03;100.00;100822.94;5024667;28;20561;-73
2023/08/26 02:56:22;;;;;;;30.75;15.13;;;;;;;17.00;100.00;100839.38;5026956;28;20095;-73
2023/08/26 02:58:47;;;;;;;27.30;14.55;;;;;;;16.97;100.00;100838.81;5019760;28;20045;-72
2023/08/26 03:01:16;;;;;;;20.38;13.55;;;;;;;16.95;100.00;100838.94;5024905;28;20721;-72
2023/08/26 03:03:42;;;;;;;23.67;14.20;;;;;;;16.89;100.00;100838.66;5024537;28;20041;-72
2023/08/26 03:06:07;;;;;;;24.92;13.38;;;;;;;16.87;100.00;100841.50;5019310;28;20038;-73
2023/08/26 03:08:33;;;;;;;25.80;12.38;;;;;;;16.85;100.00;100838.06;5016284;28;20026;-73
2023/08/26 03:11:03;;;;;;;26.80;11.80;;;;;;;16.79;100.00;100838.63;5028943;28;21016;-73
2023/08/26 03:13:29;;;;;;;26.80;13.05;;;;;;;16.79;100.00;100850.25;5033161;28;20649;-72
2023/08/26 03:15:56;;;;;;;27.58;12.15;;;;;;;16.95;100.00;100846.16;5049022;28;20063;-73
2023/08/26 03:18:22;;;;;;;21.40;12.90;;;;;;;16.94;100.00;100850.72;5028818;28;20138;-72
2023/08/26 03:20:47;;;;;;;25.40;12.20;;;;;;;16.91;100.00;100844.75;5021398;28;20119;-72
2023/08/26 03:23:13;;;;;;;21.67;11.15;;;;;;;16.77;100.00;100844.16;5032944;28;20041;-73
2023/08/26 03:25:40;;;;;;;27.10;12.00;;;;;;;16.90;100.00;100843.03;5046469;28;20038;-72
2023/08/26 03:28:08;;;;;;;20.92;10.70;;;;;;;16.77;100.00;100848.69;5031160;28;20037;-72
2023/08/26 03:30:35;;;;;;;20.70;10.32;;;;;;;16.56;100.00;100851.41;5036349;28;20045;-73
2023/08/26 03:33:02;;;;;;;14.82;9.75;;;;;;;16.53;100.00;100855.22;5034861;28;20034;-73
2023/08/26 03:35:28;;;;;;;17.33;10.07;;;;;;;16.45;100.00;100854.19;5046174;28;21007;-72
2023/08/26 03:37:54;;;;;;;15.00;8.98;;;;;;;16.46;100.00;100855.88;5034258;28;20069;-73
2023/08/26 03:40:22;;;;;;;23.02;9.52;;;;;;;16.39;100.00;100863.66;5022930;28;20798;-72
2023/08/26 03:42:50;;;;;;;19.55;9.10;;;;;;;16.30;100.00;100859.91;5034903;28;20037;-73
2023/08/26 03:45:16;;;;;;;14.45;8.57;;;;;;;16.24;100.00;100860.47;5039368;28;20026;-73
2023/08/26 03:47:42;;;;;;;16.15;8.65;;;;;;;16.07;100.00;100863.78;5035845;28;20108;-72
2023/08/26 03:50:08;;;;;;;13.68;8.07;;;;;;;16.15;100.00;100860.41;5029452;28;20030;-73
2023/08/26 03:52:34;;;;;;;18.15;9.15;;;;;;;16.17;100.00;100861.16;5036069;28;21106;-73
2023/08/26 03:54:59;;;;;;;18.00;8.25;;;;;;;15.95;100.00;100860.28;5055255;28;20505;-73
2023/08/26 03:57:25;;;;;;;18.92;8.15;;;;;;;15.90;100.00;100861.66;5041287;28;20473;-73
2023/08/26 03:59:50;;;;;;;16.00;7.47;;;;;;;15.98;100.00;100864.56;5035606;28;20042;-73
2023/08/26 04:02:16;;;;;;;20.10;7.43;;;;;;;15.69;100.00;100861.66;5034265;28;20237;-72
2023/08/26 04:04:43;;;;;;;16.02;7.82;;;;;;;15.68;100.00;100860.81;5037990;28;20061;-73
2023/08/26 04:07:09;;;;;;;21.38;7.95;;;;;;;15.61;100.00;100862.25;5032156;28;20442;-73
2023/08/26 04:09:35;;;;;;;16.13;8.27;;;;;;;15.67;100.00;100867.16;5034721;28;20124;-72
2023/08/26 04:12:02;;;;;;;13.23;7.68;;;;;;;15.63;100.00;100863.03;5027727;28;20123;-73
2023/08/26 04:14:27;;;;;;;16.98;7.70;;;;;;;15.57;100.00;100871.59;5031004;28;20084;-72
2023/08/26 04:16:53;;;;;;;19.83;7.93;;;;;;;15.57;100.00;100873.41;5030648;28;20501;-72
2023/08/26 04:19:18;;;;;;;16.15;7.57;;;;;;;15.40;100.00;100864.06;5025486;28;20852;-73
2023/08/26 04:21:44;;;;;;;17.08;6.03;;;;;;;15.53;100.00;100867.44;5013226;28;20638;-72
2023/08/26 04:24:10;;;;;;;18.85;7.68;;;;;;;15.47;100.00;100870.66;5026233;28;20029;-73
2023/08/26 04:26:39;;;;;;;19.25;7.50;;;;;;;15.44;100.00;100870.88;5041697;28;20034;-73
2023/08/26 04:29:04;;;;;;;15.95;7.30;;;;;;;15.38;100.00;100866.88;5029100;28;20137;-72
2023/08/26 04:31:31;;;;;;;12.50;7.30;;;;;;;15.52;100.00;100871.97;5027359;28;20042;-73
2023/08/26 04:33:57;;;;;;;16.42;7.55;;;;;;;15.48;100.00;100880.41;5018370;28;20039;-72
2023/08/26 04:36:22;;;;;;;13.70;7.63;;;;;;;15.51;100.00;100881.00;5027472;28;20843;-72
2023/08/26 04:38:48;;;;;;;17.40;7.68;;;;;;;15.38;100.00;100893.75;5030147;28;20702;-72
2023/08/26 04:41:14;;;;;;;16.92;6.90;;;;;;;15.28;100.00;100899.03;5028827;28;20033;-73
2023/08/26 04:43:40;;;;;;;14.52;7.30;;;;;;;15.15;100.00;100894.78;5029347;28;20037;-73
2023/08/26 04:46:06;;;;;;;14.73;7.78;;;;;;;15.26;100.00;100901.00;5030000;28;20044;-72
2023/08/26 04:48:31;;;;;;;18.92;7.75;;;;;;;15.18;100.00;100898.09;5029506;28;20045;-73
2023/08/26 04:50:57;;;;;;;17.52;7.45;;;;;;;15.03;100.00;100910.94;5027962;28;20045;-73
2023/08/26 04:53:23;;;;;;;14.73;6.50;;;;;;;15.11;100.00;100907.63;5059542;28;20447;-73
2023/08/26 04:55:52;;;;;;;12.90;6.90;;;;;;;15.06;100.00;100901.78;5023624;28;20034;-73
2023/08/26 04:58:18;;;;;;;19.70;7.15;;;;;;;15.22;100.00;100909.44;5028398;28;20052;-74
2023/08/26 05:00:45;;;;;;;14.57;6.47;;;;;;;15.00;100.00;100911.16;5023846;28;20973;-73
2023/08/26 05:03:10;;;;;;;14.38;7.47;;;;;;;15.15;100.00;100917.13;5028262;28;20045;-73
2023/08/26 05:05:40;;;;;;;11.50;6.53;;;;;;;14.92;100.00;100913.63;5034358;28;20032;-73
2023/08/26 05:08:05;;;;;;;20.35;7.22;;;;;;;15.24;100.00;100920.91;5029012;28;20045;-72
2023/08/26 05:10:31;;;;;;;21.10;7.45;;;;;;;15.01;100.00;100922.78;5013880;28;20103;-72
2023/08/26 05:12:56;;;;;;;17.20;7.68;;;;;;;15.22;100.00;100921.03;5029274;28;20093;-72
2023/08/26 05:15:22;;;;;;;13.45;6.97;;;;;;;15.41;100.00;100924.88;5020855;28;20041;-72
2023/08/26 05:17:48;;;;;;;13.73;7.55;;;;;;;15.25;100.00;100933.34;5009837;28;20877;-73
2023/08/26 05:20:14;;;;;;;15.70;7.47;;;;;;;15.32;100.00;100936.41;5025015;28;20041;-73
2023/08/26 05:22:42;;;;;;;18.75;7.95;;;;;;;15.44;100.00;100938.94;5021893;28;20447;-73
2023/08/26 05:25:09;;;;;;;15.45;7.82;;;;;;;15.26;100.00;100940.41;5022894;28;20030;-73
2023/08/26 05:27:34;;;;;;;16.50;6.72;;;;;;;15.25;100.00;100936.03;5023050;28;20037;-73
2023/08/26 05:30:00;;;;;;;15.18;6.88;;;;;;;15.17;100.00;100941.19;5042295;28;20038;-73
2023/08/26 05:32:27;;;;;;;13.68;6.35;;;;;;;15.37;100.00;100944.94;5040302;28;20072;-73
2023/08/26 05:34:53;;;;;;;14.15;6.47;;;;;;;15.44;100.00;100938.94;5030360;28;20158;-73
2023/08/26 05:37:18;;;;;;;12.43;6.63;;;;;;;15.58;100.00;100929.72;5027326;28;20040;-73
2023/08/26 05:39:44;;;;;;;16.08;6.25;;;;;;;15.59;100.00;100923.38;5041068;28;20041;-73
2023/08/26 05:42:10;;;;;;;19.15;6.53;;;;;;;15.53;100.00;100927.41;5034287;28;20045;-72
2023/08/26 05:44:35;;;;;;;16.45;6.47;;;;;;;15.51;100.00;100931.19;5030055;28;20029;-73
2023/08/26 05:47:01;;;;;;;12.10;5.85;;;;;;;15.62;100.00;100935.72;5004243;28;20037;-72
2023/08/26 05:49:27;;;;;;;14.18;6.75;;;;;;;15.59;100.00;100944.03;5022588;28;20041;-72
2023/08/26 05:51:53;;;;;;;11.63;6.50;;;;;;;15.53;100.00;100930.09;5024889;28;20123;-73
2023/08/26 05:54:18;;;;;;;18.25;6.70;;;;;;;15.69;100.00;100927.03;5026201;28;20049;-72
2023/08/26 05:56:44;;;;;;;13.75;6.70;;;;;;;15.63;100.00;100926.66;5048870;28;20041;-73
2023/08/26 05:59:09;;;;;;;12.90;6.05;;;;;;;15.55;100.00;100925.44;5048395;28;20848;-73
2023/08/26 06:01:35;;;;;;;16.48;6.32;;;;;;;15.72;100.00;100924.09;5028828;28;20049;-73
2023/08/26 06:04:00;;;;;;;15.07;5.80;;;;;;;15.66;100.00;100927.31;5028241;28;20096;-73
2023/08/26 06:06:26;;;;;;;18.92;6.05;;;;;;;15.67;100.00;100920.94;5029823;28;20506;-73
2023/08/26 06:08:52;;;;;;;11.60;6.40;;;;;;;15.96;100.00;100921.16;5067314;28;20581;-73
2023/08/26 06:11:17;;;;;;;14.95;6.20;;;;;;;16.05;100.00;100922.22;5057692;28;20938;-73
2023/08/26 06:13:44;;;;;;;22.40;6.97;;;;;;;15.95;100.00;100921.28;5028227;28;20154;-72
2023/08/26 06:16:10;;;;;;;13.07;5.88;;;;;;;16.00;100.00;100913.69;5028108;28;20041;-72
2023/08/26 06:18:37;;;;;;;13.93;5.60;;;;;;;16.23;100.00;100920.66;5051510;28;20048;-73
2023/08/26 06:21:02;;;;;;;11.30;5.75;;;;;;;16.22;100.00;100916.25;5030054;28;20119;-72
2023/08/26 06:23:29;;;;;;;14.77;5.95;;;;;;;16.44;100.00;100922.47;5055428;27;21055;-73
2023/08/26 06:25:56;;;;;;;11.07;4.85;;;;;;;16.63;100.00;100924.41;5025812;28;20030;-73
2023/08/26 06:28:25;;;;;;;12.98;5.72;;;;;;;16.63;100.00;100924.41;5028343;28;20041;-72
2023/08/26 06:30:56;;;;;;;12.40;5.80;;;;;;;16.73;100.00;100933.44;5025595;28;20045;-73
2023/08/26 06:33:21;;;;;;;13.27;6.22;;;;;;;16.78;100.00;100921.25;5025544;28;20034;-73
2023/08/26 06:35:48;;;;;;;9.77;5.68;;;;;;;16.85;100.00;100928.78;5009238;28;20100;-73
2023/08/26 06:38:14;;;;;;;12.38;5.95;;;;;;;17.01;100.00;100923.75;5027061;28;20041;-74
2023/08/26 06:40:41;;;;;;;10.45;5.93;;;;;;;17.02;100.00;100931.72;5024538;28;20083;-73
2023/08/26 06:43:07;;;;;;;12.15;5.85;;;;;;;17.26;100.00;100928.63;5046847;28;20991;-73
2023/08/26 06:45:34;;;;;;;10.43;4.80;;;;;;;17.34;100.00;100923.41;5024917;28;20040;-73
2023/08/26 06:48:03;;;;;;;10.05;5.65;;;;;;;17.46;100.00;100929.53;5041122;28;21157;-73
2023/08/26 06:50:29;;;;;;;10.18;5.32;;;;;;;17.58;100.00;100922.19;5041167;28;20034;-74
2023/08/26 06:52:55;;;;;;;12.32;5.63;;;;;;;17.83;100.00;100920.81;5026628;28;20048;-72
2023/08/26 06:55:20;;;;;;;10.35;5.43;;;;;;;18.08;100.00;100919.38;5028395;28;20042;-73
2023/08/26 06:57:46;;;;;;;11.57;5.32;;;;;;;18.02;100.00;100922.63;5026703;28;20037;-73
2023/08/26 07:00:13;;;;;;;11.05;5.45;;;;;;;18.18;100.00;100924.75;5025044;28;20045;-73
2023/08/26 07:02:38;;;;;;;10.60;5.45;;;;;;;18.43;100.00;100915.19;5024192;28;20037;-73
2023/08/26 07:05:04;;;;;;;11.05;5.65;;;;;;;18.47;100.00;100919.28;5025567;28;20045;-72
2023/08/26 07:07:30;;;;;;;9.35;5.38;;;;;;;18.25;100.00;100929.41;5053244;28;21035;-73
2023/08/26 07:09:56;;;;;;;11.60;4.75;;;;;;;18.31;100.00;100927.97;5023401;28;20045;-73
2023/08/26 07:12:21;;;;;;;10.73;4.95;;;;;;;18.64;100.00;100930.19;5017658;28;20882;-72
2023/08/26 07:14:47;;;;;;;12.65;5.38;;;;;;;18.85;100.00;100932.69;5024876;28;20045;-73
2023/08/26 07:17:15;;;;;;;9.85;5.60;;;;;;;18.91;100.00;100935.78;5024085;28;20093;-73
2023/08/26 07:19:41;;;;;;;10.70;5.28;;;;;;;18.74;100.00;100929.31;5028621;28;20025;-72
2023/08/26 07:22:07;;;;;;;11.02;5.65;;;;;;;18.89;100.00;100933.25;5032626;28;20041;-74
2023/08/26 07:24:32;;;;;;;12.10;5.88;;;;;;;18.77;100.00;100927.16;5029024;28;20123;-72
2023/08/26 07:26:58;;;;;;;8.73;5.13;;;;;;;18.95;100.00;100927.25;5025591;28;20049;-72
2023/08/26 07:29:24;;;;;;;14.43;5.43;;;;;;;19.24;100.00;100931.66;5034218;28;20044;-72
2023/08/26 07:31:49;;;;;;;10.80;4.95;;;;;;;19.22;100.00;100917.41;5024969;28;20049;-73
2023/08/26 07:34:15;;;;;;;12.50;5.70;;;;;;;19.32;100.00;100929.03;5022249;28;20108;-72
2023/08/26 07:36:41;;;;;;;11.57;5.10;;;;;;;19.56;100.00;100914.91;5028059;28;20033;-73
2023/08/26 07:39:06;;;;;;;9.52;5.15;;;;;;;19.77;100.00;100917.34;5020063;28;21061;-74
2023/08/26 07:41:32;;;;;;;12.20;5.50;;;;;;;19.96;100.00;100916.34;5027706;28;20040;-72
2023/08/26 07:43:57;;;;;;;13.60;5.32;;;;;;;19.87;100.00;100913.56;5022515;28;20044;-73
2023/08/26 07:46:23;;;;;;;12.20;4.82;;;;;;;19.82;100.00;100912.31;5038294;28;20049;-73
2023/08/26 07:48:49;;;;;;;13.73;5.55;;;;;;;20.05;100.00;100910.00;5018352;28;20035;-73
2023/08/26 07:51:15;;;;;;;14.63;5.75;;;;;;;19.89;100.00;100908.84;5028606;28;20045;-72
2023/08/26 07:53:41;;;;;;;12.85;5.50;;;;;;;20.00;100.00;100909.59;5025268;28;20033;-73
2023/08/26 07:56:08;;;;;;;12.13;5.50;;;;;;;20.14;100.00;100923.44;5032650;28;20045;-73
2023/08/26 07:58:34;;;;;;;10.85;5.47;;;;;;;20.12;99.57;100928.13;5023974;28;20033;-71
2023/08/26 08:00:59;;;;;;;15.02;5.85;;;;;;;20.49;98.54;100928.97;5028213;28;20030;-72
2023/08/26 08:03:25;;;;;;;13.23;5.97;;;;;;;20.88;100.00;100932.03;5027562;28;20052;-73
2023/08/26 08:05:51;;;;;;;11.15;5.35;;;;;;;20.96;98.14;100937.50;5027030;28;20030;-72
2023/08/26 08:08:16;;;;;;;13.82;5.47;;;;;;;21.24;94.80;100938.16;5035449;28;21108;-73
2023/08/26 08:10:42;;;;;;;15.20;5.90;;;;;;;21.02;92.94;100941.44;5028060;28;20115;-72
2023/08/26 08:13:08;;;;;;;11.35;5.38;;;;;;;21.09;93.42;100945.22;5030032;28;20123;-73
2023/08/26 08:15:34;;;;;;;16.10;5.70;;;;;;;20.49;93.07;100947.94;5030296;28;20331;-72
2023/08/26 08:18:02;;;;;;;13.73;4.65;;;;;;;20.69;93.33;100949.41;5030965;28;20022;-72
2023/08/26 08:20:30;;;;;;;10.98;5.55;;;;;;;20.73;96.05;100948.06;5034942;28;20118;-73
2023/08/26 08:22:56;;;;;;;9.55;4.30;;;;;;;20.68;95.45;100951.28;5028052;28;20573;-73
2023/08/26 08:25:22;;;;;;;8.23;4.63;;;;;;;21.21;94.78;100949.31;5031306;28;20038;-74
2023/08/26 08:27:47;;;;;;;16.63;5.00;;;;;;;21.23;94.22;100957.28;5025544;28;20749;-73
2023/08/26 08:30:13;;;;;;;12.13;5.03;;;;;;;21.51;90.43;100949.78;5028321;28;20580;-73
2023/08/26 08:32:38;;;;;;;13.35;4.32;;;;;;;21.54;91.53;100955.75;5050030;28;20041;-74
2023/08/26 08:35:04;;;;;;;11.63;5.18;;;;;;;21.12;89.13;100955.72;5017092;28;20408;-73
2023/08/26 08:37:30;;;;;;;18.40;4.93;;;;;;;21.45;92.88;100957.56;5029103;28;20034;-72
2023/08/26 08:39:56;;;;;;;10.30;5.00;;;;;;;21.59;93.65;100952.53;5024366;28;20038;-73
2023/08/26 08:42:22;;;;;;;10.60;4.50;;;;;;;21.43;89.59;100962.31;5024508;28;20041;-73
2023/08/26 08:44:48;;;;;;;10.45;4.38;;;;;;;21.64;88.97;100958.31;5030610;28;20065;-73
2023/08/26 08:47:15;;;;;;;18.60;4.75;;;;;;;21.52;88.17;100954.19;5025292;28;20034;-73
2023/08/26 08:49:42;;;;;;;10.38;4.10;;;;;;;21.84;86.26;100950.69;5036003;28;20045;-73
2023/08/26 08:52:09;;;;;;;10.38;3.72;;;;;;;22.05;83.85;100955.66;5037729;28;20029;-73
2023/08/26 08:54:35;;;;;;;12.68;3.47;;;;;;;22.02;83.61;100961.41;5041103;28;20033;-73
2023/08/26 08:57:06;;;;;;;7.55;3.35;;;;;;;22.00;86.66;100961.59;5033141;28;20468;-73
2023/08/26 08:59:35;;;;;;;10.85;3.40;;;;;;;22.15;87.44;100959.06;5021637;28;20025;-73
2023/08/26 09:02:04;;;;;;;5.28;2.67;;;;;;;21.98;83.89;100964.44;5034026;28;20042;-73
2023/08/26 09:04:29;;;;;;;9.27;3.00;;;;;;;22.25;84.72;100948.03;5052991;28;20044;-73
2023/08/26 09:06:55;;;;;;;7.45;2.53;;;;;;;22.16;84.50;100950.75;5036103;28;20040;-73
2023/08/26 09:09:21;;;;;;;9.02;3.30;;;;;;;22.05;85.79;100945.63;5032232;28;20111;-73
2023/08/26 09:11:48;;;;;;;11.07;3.03;;;;;;;22.22;85.98;100949.22;5028926;28;20049;-73
2023/08/26 09:14:13;;;;;;;9.57;2.78;;;;;;;22.25;84.12;100943.44;5034734;28;20025;-73
2023/08/26 09:16:42;;;;;;;7.47;3.22;;;;;;;21.95;84.08;100950.38;5038160;28;20459;-73
2023/08/26 09:19:12;;;;;;;6.68;3.05;;;;;;;21.93;84.40;100955.94;5027914;28;20033;-73
2023/08/26 09:21:42;;;;;;;8.20;2.47;;;;;;;21.92;83.83;100954.25;5021375;28;20104;-73
2023/08/26 09:24:15;;;;;;;8.43;3.20;;;;;;;21.74;85.61;100959.00;5026879;28;20383;-73
2023/08/26 09:26:58;;;;;;;8.63;3.22;;;;;;;21.75;84.32;100957.97;5025096;28;20072;-73
2023/08/26 09:29:24;;;;;;;8.60;2.53;;;;;;;22.35;81.58;100957.72;5028873;28;20062;-72
2023/08/26 09:31:55;;;;;;;8.77;2.88;;;;;;;22.29;79.08;100958.41;5026645;28;20729;-74
2023/08/26 09:34:24;;;;;;;12.13;3.60;;;;;;;22.25;79.31;100956.19;5043697;28;20049;-73
2023/08/26 09:36:50;;;;;;;6.82;3.10;;;;;;;22.70;78.71;100952.91;5019873;28;21328;-72
2023/08/26 09:39:16;;;;;;;6.47;2.78;;;;;;;22.91;80.16;100945.03;5023048;28;20040;-73
2023/08/26 09:41:45;;;;;;;8.07;3.20;;;;;;;22.63;82.04;100944.56;5025317;28;20568;-74
2023/08/26 09:44:12;;;;;;;11.63;2.70;;;;;;;22.38;79.07;100943.75;5027386;28;20030;-72
2023/08/26 09:46:42;;;;;;;6.35;2.80;;;;;;;22.64;77.59;100945.41;5020564;28;20045;-73
2023/08/26 09:49:18;;;;;;;8.75;2.58;;;;;;;22.52;80.90;100944.09;5025444;28;20030;-73
2023/08/26 09:51:48;;;;;;;4.38;2.55;;;;;;;22.90;79.43;100956.09;5030543;28;20049;-74
2023/08/26 09:54:18;;;;;;;6.18;2.85;;;;;;;23.38;78.81;100951.47;5027030;28;20916;-73
2023/08/26 09:56:45;;;;;;;6.25;2.33;;;;;;;23.37;75.92;100955.22;5030694;28;20064;-73
2023/08/26 09:59:11;;;;;;;4.47;2.35;;;;;;;23.35;74.38;100949.97;5028116;28;20041;-71
2023/08/26 10:01:39;;;;;;;6.50;2.72;;;;;;;23.45;74.55;100949.75;5019763;28;20034;-73
2023/08/26 10:04:08;;;;;;;5.38;2.05;;;;;;;23.68;72.61;100950.63;5027997;28;20164;-73
2023/08/26 10:06:40;;;;;;;5.35;2.45;;;;;;;23.82;75.09;100945.47;5027938;28;20804;-74
2023/08/26 10:09:15;;;;;;;5.47;2.53;;;;;;;23.87;73.88;100951.19;5027757;28;20045;-73
2023/08/26 10:11:43;;;;;;;5.97;1.92;;;;;;;24.07;73.25;100940.66;5027194;28;20042;-73
2023/08/26 10:14:14;;;;;;;6.20;2.10;;;;;;;23.36;71.97;100948.94;5034452;28;21046;-74
2023/08/26 10:16:41;;;;;;;4.45;2.05;;;;;;;23.94;72.20;100949.44;5033271;28;20033;-73
2023/08/26 10:19:08;;;;;;;9.00;2.30;;;;;;;23.65;71.45;100950.19;5034351;28;20065;-73
2023/08/26 10:21:35;;;;;;;5.03;1.85;;;;;;;23.36;72.46;100956.25;5029488;28;20037;-73
2023/08/26 10:24:01;;;;;;;5.45;1.80;;;;;;;22.99;71.21;100958.63;5024588;28;20042;-73
2023/08/26 10:26:27;;;;;;;3.53;1.85;;;;;;;23.34;72.41;100955.56;5028079;28;20033;-74
2023/08/26 10:28:55;;;;;;;7.90;2.05;;;;;;;23.33;71.40;100957.44;5024813;28;20042;-73
2023/08/26 10:31:21;;;;;;;6.88;1.73;;;;;;;23.13;70.13;100948.84;5020501;28;20208;-73
2023/08/26 10:33:59;;;;;;;5.32;2.05;;;;;;;23.31;71.58;100948.63;5024949;28;20531;-74
2023/08/26 10:36:26;;;;;;;7.00;2.70;;;;;;;23.23;71.59;100944.06;5029651;28;20047;-73
2023/08/26 10:38:58;;;;;;;6.63;1.75;;;;;;;23.33;69.59;100946.56;5023772;28;20033;-72
2023/08/26 10:41:25;;;;;;;4.30;1.75;;;;;;;23.74;68.88;100944.47;5034874;28;20037;-73
2023/08/26 10:43:55;;;;;;;6.75;1.83;;;;;;;23.99;70.66;100945.13;5024346;28;20041;-72
2023/08/26 10:46:53;;;;;;;6.85;1.95;;;;;;;23.81;67.75;100941.03;5027222;28;20107;-72
2023/08/26 10:49:22;;;;;;;5.40;1.90;;;;;;;23.61;70.80;100936.03;5028112;28;20034;-73
2023/08/26 10:51:47;;;;;;;3.78;1.67;;;;;;;23.51;70.01;100941.69;5030790;28;20044;-73
2023/08/26 10:54:13;;;;;;;7.40;1.92;;;;;;;23.47;70.08;100939.50;5029557;28;20495;-73
2023/08/26 10:56:39;;;;;;;2.85;1.70;;;;;;;23.89;69.55;100927.34;5028521;28;20341;-73
2023/08/26 10:59:06;;;;;;;5.70;1.67;;;;;;;23.66;69.28;100933.66;5027337;28;20029;-73
2023/08/26 11:01:35;;;;;;;4.93;2.03;;;;;;;23.27;70.33;100939.09;5028685;28;20069;-73
2023/08/26 11:04:03;;;;;;;4.32;1.63;;;;;;;23.97;70.69;100935.47;5024020;28;20041;-73
2023/08/26 11:06:35;;;;;;;4.88;1.80;;;;;;;24.36;69.70;100935.31;5029098;28;20102;-73
2023/08/26 11:09:01;;;;;;;4.28;1.90;;;;;;;24.38;67.47;100933.25;5026476;28;20029;-73
2023/08/26 11:11:26;;;;;;;5.30;1.77;;;;;;;23.64;67.71;100940.28;5021277;28;20116;-74